Time;durP1;ratioP1;P1;durP2;ratioP2;P2;SDS_P1;SDS_P2;PMS_P1;PMS_P2;Temp;Humidity;BMP_temperature;BMP_pressure;BME280_temperature;BME280_humidity;BME280_pressure;Samples;Min_cycle;Max_cycle;Signal;HPM_P1;HPM_P2
2022/05/05 00:01:12;;;;;;;11.52;6.25;;;;;;;;;;4980938;28;20096;-79
2022/05/05 00:03:40;;;;;;;10.23;5.32;;;;;;;;;;4978136;28;20042;-79
2022/05/05 00:06:08;;;;;;;21.10;10.13;;;;;;;;;;4991686;28;20381;-78
2022/05/05 00:08:35;;;;;;;19.73;9.23;;;;;;;;;;4985086;28;20062;-79
2022/05/05 00:16:35;;;;;;;29.65;13.82;;;;;;;;;;4981728;28;20045;-80
2022/05/05 00:19:03;;;;;;;36.72;14.63;;;;;;;;;;4970990;28;20035;-79
2022/05/05 00:21:30;;;;;;;10.73;6.40;;;;;;;;;;4969606;28;20049;-78
2022/05/05 00:23:58;;;;;;;12.93;7.05;;;;;;;;;;4989572;28;20069;-78
2022/05/05 00:26:25;;;;;;;16.55;7.88;;;;;;;;;;4991252;28;20077;-78
2022/05/05 00:28:53;;;;;;;15.60;8.02;;;;;;;;;;4992202;28;20469;-78
2022/05/05 00:31:20;;;;;;;19.90;10.38;;;;;;;;;;4977749;28;20047;-80
2022/05/05 00:33:48;;;;;;;22.38;10.88;;;;;;;;;;4987652;28;20089;-80
2022/05/05 00:36:16;;;;;;;25.15;11.73;;;;;;;;;;4992876;28;20042;-80
2022/05/05 00:38:43;;;;;;;23.52;11.82;;;;;;;;;;4990326;28;20138;-80
2022/05/05 00:41:11;;;;;;;21.00;8.35;;;;;;;;;;4989115;28;20113;-80
2022/05/05 00:43:38;;;;;;;16.58;7.70;;;;;;;;;;4994331;28;20037;-80
2022/05/05 00:46:05;;;;;;;18.10;7.90;;;;;;;;;;5006500;28;20817;-80
2022/05/05 00:48:33;;;;;;;21.30;11.82;;;;;;;;;;4990139;28;20042;-80
2022/05/05 00:51:00;;;;;;;15.18;7.75;;;;;;;;;;4989860;28;20053;-80
2022/05/05 00:53:28;;;;;;;20.67;9.32;;;;;;;;;;4992808;28;20512;-80
2022/05/05 00:56:03;;;;;;;20.83;11.70;;;;;;;;;;5000867;28;20046;-80
2022/05/05 00:58:30;;;;;;;29.10;14.38;;;;;;;;;;4988722;28;20503;-80
2022/05/05 01:00:58;;;;;;;24.20;10.20;;;;;;;;;;4983066;28;20076;-80
2022/05/05 01:03:26;;;;;;;21.85;10.43;;;;;;;;;;4990030;28;20042;-80
2022/05/05 01:05:54;;;;;;;18.85;8.93;;;;;;;;;;4979857;28;20049;-80
2022/05/05 01:08:21;;;;;;;21.63;9.90;;;;;;;;;;4975962;28;20137;-80
2022/05/05 01:10:48;;;;;;;21.60;10.02;;;;;;;;;;4973214;28;20039;-80
2022/05/05 01:13:16;;;;;;;36.50;15.43;;;;;;;;;;4984087;28;20105;-80
2022/05/05 01:15:43;;;;;;;33.70;12.98;;;;;;;;;;4972233;28;20065;-80
2022/05/05 01:18:11;;;;;;;23.30;10.63;;;;;;;;;;4989345;28;20467;-81
2022/05/05 01:20:45;;;;;;;27.65;13.70;;;;;;;;;;4991183;28;20045;-80
2022/05/05 01:23:13;;;;;;;24.80;11.05;;;;;;;;;;4984655;28;20049;-80
2022/05/05 01:28:28;;;;;;;37.00;14.35;;;;;;;;;;4990739;28;20042;-80
2022/05/05 01:30:56;;;;;;;33.63;15.27;;;;;;;;;;4991494;28;20428;-80
2022/05/05 01:33:24;;;;;;;27.35;11.38;;;;;;;;;;4988734;28;20356;-80
2022/05/05 01:35:53;;;;;;;22.98;10.60;;;;;;;;;;4993162;28;20466;-80
2022/05/05 01:38:22;;;;;;;26.33;12.82;;;;;;;;;;4984890;28;20054;-80
2022/05/05 01:40:50;;;;;;;29.50;14.80;;;;;;;;;;4991126;28;20039;-80
2022/05/05 01:43:19;;;;;;;27.08;11.05;;;;;;;;;;4997011;28;20092;-80
2022/05/05 01:45:46;;;;;;;17.05;8.55;;;;;;;;;;4971474;28;20042;-80
2022/05/05 01:48:14;;;;;;;25.65;12.27;;;;;;;;;;4986092;28;20053;-79
2022/05/05 01:50:41;;;;;;;23.27;11.07;;;;;;;;;;4978202;28;20130;-80
2022/05/05 01:53:09;;;;;;;26.38;12.00;;;;;;;;;;4993423;28;20137;-80
2022/05/05 01:55:36;;;;;;;21.63;10.35;;;;;;;;;;4981874;28;20038;-80
2022/05/05 01:58:04;;;;;;;46.45;16.80;;;;;;;;;;4979720;28;20721;-80
2022/05/05 02:00:31;;;;;;;24.20;10.55;;;;;;;;;;4966672;28;20498;-80
2022/05/05 02:02:59;;;;;;;30.42;12.15;;;;;;;;;;4990750;28;20038;-80
2022/05/05 02:05:26;;;;;;;30.77;14.65;;;;;;;;;;4988780;28;20135;-80
2022/05/05 02:07:54;;;;;;;49.08;19.20;;;;;;;;;;4970394;28;20046;-80
2022/05/05 02:10:21;;;;;;;32.65;14.40;;;;;;;;;;4990020;28;20584;-80
2022/05/05 02:12:51;;;;;;;34.72;14.45;;;;;;;;;;4988218;28;20044;-80
2022/05/05 02:15:18;;;;;;;38.22;15.88;;;;;;;;;;4990890;28;20089;-80
2022/05/05 02:17:46;;;;;;;41.63;18.00;;;;;;;;;;5000255;28;20047;-80
2022/05/05 02:20:13;;;;;;;38.55;17.17;;;;;;;;;;4988626;28;20046;-80
2022/05/05 02:22:41;;;;;;;39.60;19.45;;;;;;;;;;4987633;28;20038;-79
2022/05/05 02:25:09;;;;;;;52.33;21.13;;;;;;;;;;4985442;28;20046;-80
2022/05/05 02:27:53;;;;;;;27.90;12.35;;;;;;;;;;4985719;28;20046;-79
2022/05/05 02:30:21;;;;;;;34.35;14.88;;;;;;;;;;4988035;28;20057;-79
2022/05/05 02:32:50;;;;;;;55.08;21.33;;;;;;;;;;4991906;28;20070;-79
2022/05/05 02:35:18;;;;;;;27.67;13.07;;;;;;;;;;4986043;28;20217;-79
2022/05/05 02:40:32;;;;;;;36.42;14.48;;;;;;;;;;5040592;22;20108;-81
2022/05/05 02:43:06;;;;;;;51.00;19.30;;;;;;;;;;4996251;28;20515;-80
2022/05/05 02:45:44;;;;;;;59.90;21.75;;;;;;;;;;4985832;28;20038;-82
2022/05/05 02:48:19;;;;;;;34.53;15.18;;;;;;;;;;5009992;28;20050;-82
2022/05/05 02:50:47;;;;;;;41.47;17.02;;;;;;;;;;4983791;28;20046;-81
2022/05/05 02:56:06;;;;;;;45.67;18.52;;;;;;;;;;4973305;28;20054;-82
2022/05/05 02:58:37;;;;;;;23.15;10.07;;;;;;;;;;4977177;28;20634;-82
2022/05/05 03:01:08;;;;;;;32.22;14.77;;;;;;;;;;4992210;28;20471;-81
2022/05/05 03:03:42;;;;;;;61.20;21.00;;;;;;;;;;4979337;28;20376;-81
2022/05/05 03:06:12;;;;;;;16.30;8.90;;;;;;;;;;4994988;28;20043;-81
2022/05/05 03:08:50;;;;;;;23.08;10.63;;;;;;;;;;4982813;28;20035;-82
2022/05/05 03:11:21;;;;;;;19.77;9.07;;;;;;;;;;4988116;28;20046;-81
2022/05/05 03:14:00;;;;;;;21.92;11.57;;;;;;;;;;4993608;28;20074;-82
2022/05/05 03:16:32;;;;;;;20.05;8.98;;;;;;;;;;4992755;28;20035;-82
2022/05/05 03:19:00;;;;;;;17.08;8.20;;;;;;;;;;4993837;28;20053;-82
2022/05/05 03:21:30;;;;;;;16.85;8.50;;;;;;;;;;4976700;28;20053;-80
2022/05/05 03:24:04;;;;;;;23.17;11.48;;;;;;;;;;4939603;28;20054;-80
2022/05/05 03:26:34;;;;;;;29.00;13.88;;;;;;;;;;4979063;28;20051;-80
2022/05/05 03:29:04;;;;;;;70.13;23.65;;;;;;;;;;4937141;28;20058;-82
2022/05/05 03:31:34;;;;;;;45.17;17.98;;;;;;;;;;4975554;28;20057;-82
2022/05/05 03:34:05;;;;;;;44.58;17.35;;;;;;;;;;4975522;28;20429;-80
2022/05/05 03:36:33;;;;;;;44.25;16.90;;;;;;;;;;4999083;28;20050;-83
2022/05/05 03:39:00;;;;;;;55.17;20.67;;;;;;;;;;4959436;28;20054;-83
2022/05/05 03:41:35;;;;;;;39.90;17.13;;;;;;;;;;4997149;28;20046;-81
2022/05/05 03:44:07;;;;;;;25.40;12.07;;;;;;;;;;4959845;28;20046;-82
2022/05/05 03:46:35;;;;;;;22.77;11.77;;;;;;;;;;4992637;28;20050;-81
2022/05/05 03:49:03;;;;;;;24.27;12.00;;;;;;;;;;4994895;28;20057;-81
2022/05/05 03:51:32;;;;;;;19.00;10.63;;;;;;;;;;4995181;28;20066;-80
2022/05/05 03:54:00;;;;;;;41.08;18.45;;;;;;;;;;4989428;28;20035;-82
2022/05/05 03:56:28;;;;;;;39.58;18.50;;;;;;;;;;5011524;28;20043;-82
2022/05/05 03:58:58;;;;;;;41.92;16.85;;;;;;;;;;5013494;28;20070;-84
2022/05/05 04:01:30;;;;;;;29.65;13.57;;;;;;;;;;4982847;28;20050;-83
2022/05/05 04:04:00;;;;;;;16.38;9.85;;;;;;;;;;5005991;28;20481;-82
2022/05/05 04:06:32;;;;;;;16.58;10.18;;;;;;;;;;4973806;28;20515;-84
2022/05/05 04:09:04;;;;;;;38.67;15.38;;;;;;;;;;4989443;28;20050;-83
2022/05/05 04:11:37;;;;;;;31.50;14.10;;;;;;;;;;4973910;28;20352;-81
2022/05/05 04:14:09;;;;;;;18.30;10.25;;;;;;;;;;4989459;28;20508;-81
2022/05/05 04:16:37;;;;;;;19.70;10.75;;;;;;;;;;4990288;28;20097;-83
2022/05/05 04:19:05;;;;;;;35.47;16.05;;;;;;;;;;4974123;28;20093;-84
2022/05/05 04:21:37;;;;;;;22.00;13.07;;;;;;;;;;4967934;28;20479;-81
2022/05/05 04:24:07;;;;;;;30.45;16.92;;;;;;;;;;4967958;28;20101;-81
2022/05/05 04:26:36;;;;;;;11.18;8.52;;;;;;;;;;4991723;28;20042;-80
2022/05/05 04:29:03;;;;;;;9.73;7.53;;;;;;;;;;4967880;28;20058;-82
2022/05/05 04:31:33;;;;;;;16.95;11.05;;;;;;;;;;4989003;28;20046;-80
2022/05/05 04:34:01;;;;;;;25.33;12.95;;;;;;;;;;4993516;28;20097;-81
2022/05/05 04:36:28;;;;;;;22.20;12.23;;;;;;;;;;4993314;28;20046;-81
2022/05/05 04:38:56;;;;;;;39.42;18.88;;;;;;;;;;4990136;28;20046;-82
2022/05/05 04:41:23;;;;;;;33.22;17.52;;;;;;;;;;4990556;28;20050;-81
2022/05/05 04:43:59;;;;;;;40.25;17.77;;;;;;;;;;4975068;28;20075;-81
2022/05/05 04:46:28;;;;;;;38.60;15.45;;;;;;;;;;4982045;28;20042;-83
2022/05/05 04:48:56;;;;;;;39.05;18.48;;;;;;;;;;4991102;28;20133;-79
2022/05/05 04:51:23;;;;;;;46.00;19.55;;;;;;;;;;4987389;28;20042;-82
2022/05/05 04:53:51;;;;;;;49.20;19.38;;;;;;;;;;4993221;28;20393;-83
2022/05/05 04:56:18;;;;;;;56.92;21.30;;;;;;;;;;4976522;28;20535;-81
2022/05/05 04:58:46;;;;;;;52.40;21.20;;;;;;;;;;4996262;28;20046;-81
2022/05/05 05:01:13;;;;;;;41.25;19.83;;;;;;;;;;4990442;28;20056;-81
2022/05/05 05:03:42;;;;;;;37.13;18.80;;;;;;;;;;4974279;28;20407;-81
2022/05/05 05:06:10;;;;;;;37.53;18.17;;;;;;;;;;4995034;28;20047;-82
2022/05/05 05:08:38;;;;;;;43.13;20.60;;;;;;;;;;4996247;28;20045;-82
2022/05/05 05:11:06;;;;;;;44.35;20.70;;;;;;;;;;4940926;28;20157;-81
2022/05/05 05:13:35;;;;;;;52.25;22.88;;;;;;;;;;4973533;28;20038;-81
2022/05/05 05:16:03;;;;;;;38.25;19.30;;;;;;;;;;4973579;28;20039;-81
2022/05/05 05:18:53;;;;;;;39.88;18.95;;;;;;;;;;4976000;28;20035;-82
2022/05/05 05:21:21;;;;;;;28.63;15.02;;;;;;;;;;4959315;28;20054;-81
2022/05/05 05:23:48;;;;;;;26.77;16.00;;;;;;;;;;4975544;28;20085;-82
2022/05/05 05:26:16;;;;;;;34.92;19.25;;;;;;;;;;4992769;28;20046;-82
2022/05/05 05:28:43;;;;;;;40.22;20.83;;;;;;;;;;4994580;28;20096;-82
2022/05/05 05:31:11;;;;;;;31.98;18.48;;;;;;;;;;4988602;28;20073;-82
2022/05/05 05:33:39;;;;;;;30.10;17.02;;;;;;;;;;4971966;28;20129;-82
2022/05/05 05:36:08;;;;;;;27.45;16.30;;;;;;;;;;5006726;28;20081;-83
2022/05/05 05:38:39;;;;;;;25.88;16.27;;;;;;;;;;4971164;28;20042;-83
2022/05/05 05:41:08;;;;;;;26.45;15.15;;;;;;;;;;4997097;28;20073;-82
2022/05/05 05:43:36;;;;;;;27.15;16.60;;;;;;;;;;4946516;28;20054;-81
2022/05/05 05:46:03;;;;;;;30.30;16.15;;;;;;;;;;4970847;28;20527;-82
2022/05/05 05:48:31;;;;;;;28.33;17.23;;;;;;;;;;4973510;28;20061;-82
2022/05/05 05:50:59;;;;;;;30.40;16.20;;;;;;;;;;4989129;28;20046;-81
2022/05/05 05:53:27;;;;;;;27.17;17.40;;;;;;;;;;4980389;28;20041;-82
2022/05/05 05:55:54;;;;;;;32.72;17.75;;;;;;;;;;4997977;28;20042;-81
2022/05/05 05:58:21;;;;;;;32.05;18.27;;;;;;;;;;5015797;28;20185;-82
2022/05/05 06:00:49;;;;;;;37.30;20.08;;;;;;;;;;4992871;28;20058;-80
2022/05/05 06:06:03;;;;;;;40.53;21.50;;;;;;;;;;4985037;28;20050;-84
2022/05/05 06:08:34;;;;;;;33.92;17.83;;;;;;;;;;4951139;28;20519;-83
2022/05/05 06:11:02;;;;;;;40.60;21.13;;;;;;;;;;4968016;28;20034;-80
2022/05/05 06:13:30;;;;;;;40.28;20.08;;;;;;;;;;4974961;28;20150;-82
2022/05/05 06:15:57;;;;;;;39.15;21.23;;;;;;;;;;4978034;28;20049;-82
2022/05/05 06:18:25;;;;;;;32.60;19.17;;;;;;;;;;4952328;28;20751;-81
2022/05/05 06:20:54;;;;;;;35.60;20.17;;;;;;;;;;4989386;28;20049;-82
2022/05/05 06:23:22;;;;;;;37.28;20.48;;;;;;;;;;4973350;28;20052;-83
2022/05/05 06:25:49;;;;;;;43.97;22.67;;;;;;;;;;4977052;28;20038;-82
2022/05/05 06:28:16;;;;;;;35.92;20.70;;;;;;;;;;4994420;28;20078;-81
2022/05/05 06:30:44;;;;;;;32.83;19.88;;;;;;;;;;4985819;28;20057;-83
2022/05/05 06:33:11;;;;;;;33.67;19.92;;;;;;;;;;4994847;28;20051;-81
2022/05/05 06:35:39;;;;;;;30.85;19.67;;;;;;;;;;5002800;28;20245;-82
2022/05/05 06:38:06;;;;;;;31.77;19.80;;;;;;;;;;4973112;28;20074;-83
2022/05/05 06:40:34;;;;;;;27.25;17.67;;;;;;;;;;5008544;28;20065;-82
2022/05/05 06:43:02;;;;;;;29.15;17.25;;;;;;;;;;4974891;28;20163;-82
2022/05/05 06:45:29;;;;;;;27.58;17.15;;;;;;;;;;4997541;28;20065;-85
2022/05/05 06:47:58;;;;;;;22.23;16.25;;;;;;;;;;5004771;28;20215;-83
2022/05/05 06:50:26;;;;;;;25.52;18.02;;;;;;;;;;4977897;28;20069;-82
2022/05/05 06:52:54;;;;;;;27.13;17.60;;;;;;;;;;4978101;28;20061;-81
2022/05/05 06:55:23;;;;;;;26.35;17.27;;;;;;;;;;4970363;28;20038;-83
2022/05/05 06:57:50;;;;;;;24.77;17.08;;;;;;;;;;4978003;28;20046;-81
2022/05/05 07:00:18;;;;;;;22.08;15.63;;;;;;;;;;4980281;28;20077;-82
2022/05/05 07:02:45;;;;;;;21.77;16.77;;;;;;;;;;4964231;28;20042;-82
2022/05/05 07:05:26;;;;;;;24.40;17.13;;;;;;;;;;4985711;28;20078;-82
2022/05/05 07:07:54;;;;;;;24.05;17.70;;;;;;;;;;4986914;28;20069;-81
2022/05/05 07:13:09;;;;;;;21.65;16.17;;;;;;;;;;4988210;28;20049;-80
2022/05/05 07:15:37;;;;;;;21.17;15.88;;;;;;;;;;4994094;28;20468;-81
2022/05/05 07:18:05;;;;;;;19.30;16.42;;;;;;;;;;4989280;28;20455;-80
2022/05/05 07:20:32;;;;;;;19.08;15.35;;;;;;;;;;4992042;28;20046;-82
2022/05/05 07:23:00;;;;;;;22.55;15.98;;;;;;;;;;4991265;28;20129;-81
2022/05/05 07:25:40;;;;;;;20.77;16.05;;;;;;;;;;4982714;28;20038;-83
2022/05/05 07:28:08;;;;;;;22.17;16.90;;;;;;;;;;4991532;28;20117;-80
2022/05/05 07:30:36;;;;;;;20.23;17.95;;;;;;;;;;4958995;28;20064;-82
2022/05/05 07:33:06;;;;;;;19.33;16.02;;;;;;;;;;4994232;28;20042;-82
2022/05/05 07:35:34;;;;;;;23.20;16.08;;;;;;;;;;4996200;28;20096;-82
2022/05/05 07:38:01;;;;;;;17.05;14.32;;;;;;;;;;4988133;28;20045;-81
2022/05/05 07:40:29;;;;;;;15.43;13.60;;;;;;;;;;4992534;28;20414;-84
2022/05/05 07:42:56;;;;;;;15.70;13.73;;;;;;;;;;4995071;28;20042;-82
2022/05/05 07:45:23;;;;;;;24.52;16.08;;;;;;;;;;4995529;28;20035;-81
2022/05/05 07:47:51;;;;;;;20.80;16.55;;;;;;;;;;4991339;28;20093;-83
2022/05/05 07:50:18;;;;;;;14.75;13.23;;;;;;;;;;4992905;28;20046;-82
2022/05/05 07:52:46;;;;;;;14.07;12.57;;;;;;;;;;4978114;28;20042;-84
2022/05/05 07:55:14;;;;;;;15.20;13.70;;;;;;;;;;4999285;28;20066;-84
2022/05/05 07:57:47;;;;;;;13.60;12.30;;;;;;;;;;5000238;28;20046;-83
2022/05/05 08:00:15;;;;;;;11.75;10.55;;;;;;;;;;4999819;28;20051;-82
2022/05/05 08:02:42;;;;;;;11.98;10.18;;;;;;;;;;4984242;28;20046;-82
2022/05/05 08:05:12;;;;;;;11.50;10.30;;;;;;;;;;5006543;28;20049;-82
2022/05/05 08:07:48;;;;;;;11.27;10.05;;;;;;;;;;5002153;28;20050;-81
2022/05/05 08:10:15;;;;;;;10.73;8.95;;;;;;;;;;5002469;28;20443;-86
2022/05/05 08:12:45;;;;;;;10.23;9.23;;;;;;;;;;5001442;28;20422;-83
2022/05/05 08:15:14;;;;;;;10.57;9.55;;;;;;;;;;4981687;28;20069;-83
2022/05/05 08:17:41;;;;;;;10.68;9.57;;;;;;;;;;4997672;28;20492;-82
2022/05/05 08:20:09;;;;;;;11.88;9.30;;;;;;;;;;4998404;28;20046;-82
2022/05/05 08:22:37;;;;;;;8.40;7.70;;;;;;;;;;4982158;28;20325;-81
2022/05/05 08:30:38;;;;;;;9.05;8.25;;;;;;;;;;4988467;28;20072;-85
2022/05/05 08:33:05;;;;;;;8.52;7.65;;;;;;;;;;5001447;28;20050;-82
2022/05/05 08:35:33;;;;;;;8.80;8.10;;;;;;;;;;4981266;28;20129;-80
2022/05/05 08:38:00;;;;;;;8.40;7.60;;;;;;;;;;4990004;28;20043;-82
2022/05/05 08:43:26;;;;;;;8.02;6.97;;;;;;;;;;4915937;29;20052;-79
2022/05/05 08:46:15;;;;;;;7.65;7.00;;;;;;;;;;4910807;29;20036;-80
2022/05/05 08:48:44;;;;;;;10.07;7.68;;;;;;;;;;4906503;29;20510;-80
2022/05/05 08:51:18;;;;;;;7.03;6.45;;;;;;;;;;4924406;29;20497;-79
2022/05/05 08:53:48;;;;;;;5.90;5.47;;;;;;;;;;4917679;29;20498;-81
2022/05/05 08:56:16;;;;;;;9.07;5.60;;;;;;;;;;4893762;29;20090;-80
2022/05/05 08:58:46;;;;;;;5.68;5.18;;;;;;;;;;4918872;29;20056;-79
2022/05/05 09:01:16;;;;;;;6.85;4.82;;;;;;;;;;4936045;29;20620;-79
2022/05/05 09:03:43;;;;;;;4.75;4.40;;;;;;;;;;4919161;29;20071;-80
2022/05/05 09:06:11;;;;;;;5.43;4.57;;;;;;;;;;4926328;29;20411;-80
2022/05/05 09:08:39;;;;;;;7.05;4.75;;;;;;;;;;4881633;29;20143;-79
2022/05/05 09:11:07;;;;;;;5.20;4.80;;;;;;;;;;4898614;29;20513;-80
2022/05/05 09:13:36;;;;;;;4.63;4.30;;;;;;;;;;4899150;29;20139;-79
2022/05/05 09:16:05;;;;;;;4.75;4.32;;;;;;;;;;4921714;29;20078;-79
2022/05/05 09:18:33;;;;;;;4.25;3.95;;;;;;;;;;4882986;29;20151;-83
2022/05/05 09:21:03;;;;;;;4.65;4.30;;;;;;;;;;4915607;29;20438;-80
2022/05/05 09:23:32;;;;;;;9.40;4.53;;;;;;;;;;4915952;29;20043;-80
2022/05/05 09:26:00;;;;;;;4.80;4.05;;;;;;;;;;4898995;29;20052;-80
2022/05/05 09:28:30;;;;;;;5.20;4.80;;;;;;;;;;4900229;29;20458;-80
2022/05/05 09:31:10;;;;;;;5.28;4.85;;;;;;;;;;4882076;29;20056;-80
2022/05/05 09:33:37;;;;;;;5.72;4.60;;;;;;;;;;4883331;29;20051;-79
2022/05/05 09:36:06;;;;;;;4.20;3.90;;;;;;;;;;4915910;29;20055;-79
2022/05/05 09:38:56;;;;;;;4.50;4.18;;;;;;;;;;4914726;29;20040;-84
2022/05/05 09:41:28;;;;;;;4.07;3.88;;;;;;;;;;4914445;29;20036;-80
2022/05/05 09:44:00;;;;;;;4.20;3.85;;;;;;;;;;4897335;29;20132;-79
2022/05/05 09:46:27;;;;;;;4.30;4.00;;;;;;;;;;4895026;29;20049;-79
2022/05/05 09:49:04;;;;;;;4.82;4.43;;;;;;;;;;4911622;29;20075;-80
2022/05/05 09:51:31;;;;;;;4.65;4.35;;;;;;;;;;4913482;29;20107;-79
2022/05/05 09:59:42;;;;;;;4.15;3.95;;;;;;;;;;4892933;29;20055;-79
2022/05/05 10:02:15;;;;;;;4.80;4.07;;;;;;;;;;4898979;29;20374;-80
2022/05/05 10:04:49;;;;;;;4.75;3.88;;;;;;;;;;4914134;29;20048;-79
2022/05/05 10:07:20;;;;;;;6.80;6.28;;;;;;;;;;4914050;29;20117;-78
2022/05/05 10:09:49;;;;;;;5.10;3.60;;;;;;;;;;4893222;29;20044;-79
2022/05/05 10:12:18;;;;;;;3.88;3.50;;;;;;;;;;4912986;29;20083;-79
2022/05/05 10:14:46;;;;;;;3.40;3.10;;;;;;;;;;4896305;29;20051;-79
2022/05/05 10:17:14;;;;;;;3.47;3.28;;;;;;;;;;4899543;29;20051;-79
2022/05/05 10:19:47;;;;;;;4.35;3.45;;;;;;;;;;4914927;29;20051;-79
2022/05/05 10:22:19;;;;;;;2.85;2.60;;;;;;;;;;4928390;29;20565;-80
2022/05/05 10:24:54;;;;;;;2.88;2.60;;;;;;;;;;4914006;29;20052;-80
2022/05/05 10:27:22;;;;;;;3.38;2.20;;;;;;;;;;4895235;29;20044;-80
2022/05/05 10:29:50;;;;;;;2.70;2.50;;;;;;;;;;4912443;29;20577;-79
2022/05/05 10:32:22;;;;;;;2.97;2.78;;;;;;;;;;4911683;29;20036;-79
2022/05/05 10:34:53;;;;;;;2.78;2.58;;;;;;;;;;4894597;29;20176;-79
2022/05/05 10:37:22;;;;;;;3.55;3.30;;;;;;;;;;4896901;29;20040;-80
2022/05/05 10:39:58;;;;;;;3.15;2.80;;;;;;;;;;4915089;29;20068;-80
2022/05/05 10:42:52;;;;;;;3.20;2.97;;;;;;;;;;4914040;29;20127;-80
2022/05/05 10:45:20;;;;;;;5.07;2.88;;;;;;;;;;4894950;29;20048;-80
2022/05/05 10:47:47;;;;;;;6.68;3.15;;;;;;;;;;4917567;29;20048;-80
2022/05/05 10:50:27;;;;;;;3.50;3.00;;;;;;;;;;4917833;29;20112;-81
2022/05/05 10:52:54;;;;;;;3.60;3.30;;;;;;;;;;4882886;29;20155;-81
2022/05/05 10:55:32;;;;;;;2.70;2.33;;;;;;;;;;4900526;29;20059;-82
2022/05/05 10:58:38;;;;;;;2.30;2.20;;;;;;;;;;4886481;29;20052;-81
2022/05/05 11:01:09;;;;;;;2.35;2.25;;;;;;;;;;4913783;29;20048;-80
2022/05/05 11:03:37;;;;;;;4.13;2.72;;;;;;;;;;4897553;29;20055;-81
2022/05/05 11:06:17;;;;;;;2.80;2.47;;;;;;;;;;4914193;29;20056;-81
2022/05/05 11:08:54;;;;;;;4.60;2.58;;;;;;;;;;4912284;29;20049;-81
2022/05/05 11:11:40;;;;;;;2.63;2.50;;;;;;;;;;4914082;29;20157;-82
2022/05/05 11:21:32;;;;;;;2.42;2.33;;;;;;;;;;4911245;29;20068;-80
2022/05/05 11:22:46;;;;;;;3.08;2.78;;;;;;;;;;4915715;29;20036;-79
2022/05/05 11:25:15;;;;;;;2.80;2.17;;;;;;;;;;4916133;29;20501;-81
2022/05/05 11:27:42;;;;;;;3.28;2.97;;;;;;;;;;4899502;29;20044;-81
2022/05/05 11:30:14;;;;;;;2.25;2.03;;;;;;;;;;4914678;29;20036;-80
2022/05/05 11:32:44;;;;;;;5.18;2.72;;;;;;;;;;4916653;29;20068;-80
2022/05/05 11:35:32;;;;;;;4.72;2.30;;;;;;;;;;4912671;29;20048;-80
2022/05/05 11:37:59;;;;;;;2.63;2.42;;;;;;;;;;4880419;29;20293;-80
2022/05/05 11:40:36;;;;;;;3.58;1.92;;;;;;;;;;4916636;29;20492;-81
2022/05/05 11:45:53;;;;;;;2.78;2.00;;;;;;;;;;4912625;29;20127;-81
2022/05/05 11:48:21;;;;;;;2.15;1.95;;;;;;;;;;4912468;29;20546;-80
2022/05/05 11:51:06;;;;;;;5.05;2.15;;;;;;;;;;4895165;29;20056;-80
2022/05/05 11:53:35;;;;;;;2.75;2.20;;;;;;;;;;4909397;29;20044;-83
2022/05/05 11:56:03;;;;;;;3.83;2.40;;;;;;;;;;4900465;29;20062;-82
2022/05/05 12:01:41;;;;;;;4.13;2.00;;;;;;;;;;4913693;29;20044;-81
2022/05/05 12:04:10;;;;;;;4.95;2.05;;;;;;;;;;4885034;29;20063;-79
2022/05/05 12:06:39;;;;;;;3.75;2.42;;;;;;;;;;4916321;29;20498;-80
2022/05/05 12:09:07;;;;;;;3.53;2.30;;;;;;;;;;4911694;29;20490;-81
2022/05/05 12:11:35;;;;;;;3.63;2.28;;;;;;;;;;4897831;29;20047;-80
2022/05/05 12:14:06;;;;;;;3.67;2.20;;;;;;;;;;4914217;29;20111;-80
2022/05/05 12:16:35;;;;;;;1.70;1.60;;;;;;;;;;4918968;29;20043;-81
2022/05/05 12:19:13;;;;;;;5.13;2.03;;;;;;;;;;4914666;29;20090;-80
2022/05/05 12:22:00;;;;;;;3.67;2.17;;;;;;;;;;4919158;29;20091;-80
2022/05/05 12:24:29;;;;;;;3.35;1.95;;;;;;;;;;4924399;29;20095;-79
2022/05/05 12:27:06;;;;;;;6.00;1.95;;;;;;;;;;4923158;29;20506;-79
2022/05/05 12:29:38;;;;;;;2.17;1.98;;;;;;;;;;4919095;29;20056;-80
2022/05/05 12:32:09;;;;;;;2.30;1.73;;;;;;;;;;4928666;29;20055;-80
2022/05/05 12:34:36;;;;;;;1.52;1.52;;;;;;;;;;4921448;29;20430;-80
2022/05/05 12:37:11;;;;;;;1.85;1.75;;;;;;;;;;4919482;29;20107;-80
2022/05/05 12:39:50;;;;;;;2.28;1.63;;;;;;;;;;4903780;29;20055;-80
2022/05/05 12:42:20;;;;;;;2.30;1.83;;;;;;;;;;4910391;29;20119;-78
2022/05/05 12:44:49;;;;;;;2.00;1.80;;;;;;;;;;4903916;29;20044;-80
2022/05/05 12:47:23;;;;;;;3.28;1.90;;;;;;;;;;4901815;29;20044;-80
2022/05/05 12:49:51;;;;;;;2.17;1.92;;;;;;;;;;4902150;29;20606;-80
2022/05/05 13:00:55;;;;;;;2.72;1.58;;;;;;;;;;4918104;29;20039;-81
2022/05/05 13:03:42;;;;;;;1.40;1.30;;;;;;;;;;4918491;29;20040;-81
2022/05/05 13:06:12;;;;;;;2.28;1.50;;;;;;;;;;4914106;29;20044;-78
2022/05/05 13:08:50;;;;;;;2.57;1.50;;;;;;;;;;4899373;29;20391;-79
2022/05/05 13:11:18;;;;;;;3.97;1.50;;;;;;;;;;4915763;29;20040;-80
2022/05/05 13:13:46;;;;;;;1.88;1.63;;;;;;;;;;4899350;29;20135;-81
2022/05/05 13:16:14;;;;;;;2.70;1.80;;;;;;;;;;4920162;29;20056;-79
2022/05/05 13:18:43;;;;;;;2.08;1.70;;;;;;;;;;4879910;29;20066;-83
2022/05/05 13:21:11;;;;;;;1.98;1.70;;;;;;;;;;4890201;29;20509;-79
2022/05/05 13:23:43;;;;;;;2.55;2.28;;;;;;;;;;4875588;29;20052;-80
2022/05/05 13:26:11;;;;;;;3.22;2.53;;;;;;;;;;4884666;29;20058;-81
2022/05/05 13:28:44;;;;;;;2.05;1.90;;;;;;;;;;4899490;29;20040;-82
2022/05/05 13:31:18;;;;;;;1.77;1.65;;;;;;;;;;4893754;29;20419;-80
2022/05/05 13:33:45;;;;;;;3.30;1.70;;;;;;;;;;4907392;29;20525;-80
2022/05/05 13:36:12;;;;;;;1.70;1.60;;;;;;;;;;4894114;29;20056;-80
2022/05/05 13:38:40;;;;;;;1.92;1.50;;;;;;;;;;4908287;29;20102;-81
2022/05/05 13:41:27;;;;;;;1.85;1.50;;;;;;;;;;4913705;29;20130;-81
2022/05/05 13:43:56;;;;;;;3.60;1.65;;;;;;;;;;4915390;29;20460;-79
2022/05/05 13:46:25;;;;;;;1.65;1.55;;;;;;;;;;4909310;29;20051;-80
2022/05/05 13:48:53;;;;;;;1.83;1.50;;;;;;;;;;4909398;29;20075;-81
2022/05/05 13:51:20;;;;;;;1.67;1.58;;;;;;;;;;4913277;29;20182;-80
2022/05/05 13:53:47;;;;;;;1.58;1.48;;;;;;;;;;4897158;29;20107;-81
2022/05/05 13:56:15;;;;;;;1.58;1.48;;;;;;;;;;4913944;29;20430;-80
2022/05/05 13:58:43;;;;;;;1.30;1.30;;;;;;;;;;4874411;29;20143;-79
2022/05/05 14:01:11;;;;;;;1.50;1.40;;;;;;;;;;4908713;29;20194;-79
2022/05/05 14:03:45;;;;;;;3.33;1.48;;;;;;;;;;4892383;29;20407;-79
2022/05/05 14:06:14;;;;;;;1.55;1.30;;;;;;;;;;4907799;29;20499;-80
2022/05/05 14:14:15;;;;;;;1.42;1.42;;;;;;;;;;4901398;29;20052;-80
2022/05/05 14:16:42;;;;;;;1.83;1.73;;;;;;;;;;4891389;29;20047;-80
2022/05/05 14:19:12;;;;;;;4.50;1.70;;;;;;;;;;4911001;29;20047;-80
2022/05/05 14:21:40;;;;;;;2.55;1.60;;;;;;;;;;4913795;29;20042;-82
2022/05/05 14:24:11;;;;;;;1.60;1.60;;;;;;;;;;4880426;29;20062;-80
2022/05/05 14:26:39;;;;;;;2.47;1.60;;;;;;;;;;4913793;29;20323;-82
2022/05/05 14:29:09;;;;;;;1.85;1.50;;;;;;;;;;4892076;29;20059;-80
2022/05/05 14:31:36;;;;;;;1.50;1.40;;;;;;;;;;4909074;29;20056;-81
2022/05/05 14:34:03;;;;;;;3.20;1.65;;;;;;;;;;4908429;29;20080;-80
2022/05/05 14:36:31;;;;;;;4.60;2.00;;;;;;;;;;4911027;29;20483;-79
2022/05/05 14:39:00;;;;;;;2.10;1.90;;;;;;;;;;4897237;29;20536;-80
2022/05/05 14:41:28;;;;;;;2.80;1.98;;;;;;;;;;4911807;29;20044;-81
2022/05/05 14:43:55;;;;;;;1.70;1.60;;;;;;;;;;4888447;29;20048;-81
2022/05/05 14:46:23;;;;;;;2.35;1.65;;;;;;;;;;4904217;29;20135;-80
2022/05/05 14:49:00;;;;;;;1.88;1.77;;;;;;;;;;4903931;29;20052;-80
2022/05/05 14:51:28;;;;;;;2.63;1.90;;;;;;;;;;4889405;29;20083;-80
2022/05/05 14:53:57;;;;;;;2.50;1.65;;;;;;;;;;4902661;29;20062;-79
2022/05/05 14:56:24;;;;;;;3.05;1.80;;;;;;;;;;4903826;29;20158;-80
2022/05/05 14:58:52;;;;;;;4.13;1.80;;;;;;;;;;4904878;29;20040;-81
2022/05/05 15:01:21;;;;;;;2.10;1.90;;;;;;;;;;4906926;29;20050;-84
2022/05/05 15:03:49;;;;;;;2.22;2.00;;;;;;;;;;4888715;29;20134;-80
2022/05/05 15:06:18;;;;;;;7.50;3.40;;;;;;;;;;4901139;29;20056;-80
2022/05/05 15:08:46;;;;;;;2.17;1.98;;;;;;;;;;4907071;29;20322;-80
2022/05/05 15:11:13;;;;;;;2.05;1.50;;;;;;;;;;4877320;29;20059;-81
2022/05/05 15:13:40;;;;;;;1.88;1.77;;;;;;;;;;4900520;29;20048;-80
2022/05/05 15:16:08;;;;;;;2.45;1.90;;;;;;;;;;4908161;29;20048;-80
2022/05/05 15:18:35;;;;;;;4.85;1.67;;;;;;;;;;4908811;29;20185;-80
2022/05/05 15:21:02;;;;;;;1.77;1.67;;;;;;;;;;4908302;29;20054;-80
2022/05/05 15:23:31;;;;;;;2.17;1.92;;;;;;;;;;4902863;29;20127;-80
2022/05/05 15:26:00;;;;;;;2.90;1.98;;;;;;;;;;4891707;29;20392;-81
2022/05/05 15:28:28;;;;;;;1.80;1.70;;;;;;;;;;4890772;29;20044;-80
2022/05/05 15:30:56;;;;;;;3.67;1.70;;;;;;;;;;4893257;29;20415;-80
2022/05/05 15:33:23;;;;;;;2.15;1.92;;;;;;;;;;4904458;29;20052;-79
2022/05/05 15:35:51;;;;;;;6.47;3.17;;;;;;;;;;4906789;29;20044;-80
2022/05/05 15:38:19;;;;;;;2.63;1.90;;;;;;;;;;4906501;29;20076;-80
2022/05/05 15:40:46;;;;;;;4.00;1.80;;;;;;;;;;4912087;29;20055;-80
2022/05/05 15:43:14;;;;;;;5.68;2.10;;;;;;;;;;4910260;29;20684;-80
2022/05/05 15:45:42;;;;;;;3.72;1.70;;;;;;;;;;4909862;29;20500;-79